Time;durP1;ratioP1;P1;durP2;ratioP2;P2;SDS_P1;SDS_P2;PMS_P1;PMS_P2;Temp;Humidity;BMP_temperature;BMP_pressure;BME280_temperature;BME280_humidity;BME280_pressure;Samples;Min_cycle;Max_cycle;Signal;HPM_P1;HPM_P2
2023/06/15 00:00:59;;;;;;;4.20;3.90;;;13.90;57.50;;;13.73;57.36;97957.13;5026572;28;20547;-77
2023/06/15 00:03:26;;;;;;;4.80;4.30;;;13.90;57.50;;;13.55;58.28;97955.34;5027969;28;20469;-77
2023/06/15 00:05:53;;;;;;;5.60;4.67;;;13.80;57.90;;;13.44;58.35;97951.59;5026304;28;20456;-78
2023/06/15 00:08:21;;;;;;;3.87;3.60;;;13.70;58.50;;;13.40;58.64;97961.19;5031798;28;20516;-77
2023/06/15 00:10:48;;;;;;;5.10;4.60;;;13.60;59.00;;;13.36;59.08;97955.44;5026578;28;20484;-77
2023/06/15 00:13:15;;;;;;;4.97;4.47;;;13.50;59.70;;;13.32;59.03;97960.50;5031705;28;20944;-78
2023/06/15 00:15:43;;;;;;;4.50;4.10;;;13.50;60.00;;;13.24;59.16;97960.84;5027592;28;20461;-80
2023/06/15 00:18:13;;;;;;;3.97;3.63;;;13.40;60.50;;;13.36;59.13;97960.03;5010261;28;20461;-77
2023/06/15 00:20:40;;;;;;;5.20;4.70;;;13.40;61.00;;;13.17;59.67;97965.56;5010884;28;20508;-80
2023/06/15 00:23:09;;;;;;;6.17;4.77;;;13.40;61.60;;;13.14;60.03;97952.47;5010638;28;20462;-80
2023/06/15 00:25:37;;;;;;;3.93;3.63;;;13.30;62.10;;;13.14;60.03;97952.47;5017078;28;20453;-78
2023/06/15 00:28:05;;;;;;;5.50;5.00;;;13.20;62.50;;;13.16;60.09;97955.78;5039684;28;20968;-78
2023/06/15 00:30:32;;;;;;;5.23;4.73;;;13.30;63.00;;;13.08;60.25;97953.38;5009434;28;20848;-77
2023/06/15 00:33:00;;;;;;;5.30;4.80;;;13.20;63.30;;;13.02;60.05;97958.69;5028097;28;20452;-79
2023/06/15 00:35:30;;;;;;;6.20;4.93;;;13.20;63.10;;;12.95;60.31;97955.25;5030866;28;20462;-81
2023/06/15 00:37:58;;;;;;;5.63;4.60;;;13.10;63.50;;;12.94;60.92;97956.31;5011060;28;20475;-79
2023/06/15 00:40:25;;;;;;;4.73;4.07;;;13.10;64.10;;;12.86;61.04;97952.03;5023451;28;20461;-80
2023/06/15 00:42:52;;;;;;;5.50;4.60;;;13.00;64.60;;;12.98;60.63;97964.81;5029666;28;20456;-79
2023/06/15 00:45:19;;;;;;;4.33;3.93;;;13.10;64.80;;;13.04;60.89;97953.84;5003837;28;20973;-78
2023/06/15 00:47:48;;;;;;;4.10;3.70;;;13.10;65.00;;;13.20;60.02;97956.13;5006370;28;20467;-75
2023/06/15 00:50:19;;;;;;;4.77;4.30;;;13.30;64.80;;;13.22;59.83;97954.81;5023339;28;20482;-75
2023/06/15 00:52:51;;;;;;;4.97;4.07;;;13.40;64.00;;;13.23;59.51;97961.09;5024069;28;20466;-79
2023/06/15 00:55:19;;;;;;;5.90;5.03;;;13.50;63.80;;;13.18;60.27;97964.50;5005520;28;20470;-78
2023/06/15 00:57:49;;;;;;;4.83;4.43;;;13.40;64.00;;;13.24;59.89;97963.56;5024960;28;20452;-76
2023/06/15 01:00:18;;;;;;;4.90;4.40;;;13.40;64.00;;;13.20;60.29;97967.00;5026127;28;20454;-78
2023/06/15 01:02:48;;;;;;;5.33;4.70;;;13.40;64.10;;;13.16;60.26;97962.00;5007318;28;20457;-79
2023/06/15 01:05:16;;;;;;;4.73;4.30;;;13.40;64.10;;;13.04;60.66;97959.28;5027120;28;20782;-78
2023/06/15 01:07:48;;;;;;;6.03;4.60;;;13.40;64.10;;;13.01;60.93;97953.50;5025562;28;20464;-79
2023/06/15 01:10:17;;;;;;;4.70;4.30;;;13.30;64.50;;;12.99;61.00;97956.44;5025567;28;20476;-81
2023/06/15 01:12:50;;;;;;;4.67;4.27;;;13.30;65.10;;;12.80;61.74;97950.28;5029987;28;20471;-77
2023/06/15 01:15:18;;;;;;;5.67;5.00;;;13.10;65.30;;;12.73;61.36;97934.09;5030022;28;20460;-76
2023/06/15 01:17:47;;;;;;;5.67;5.07;;;13.10;65.90;;;12.71;61.68;97941.66;5013941;28;21005;-77
2023/06/15 01:20:21;;;;;;;5.47;4.97;;;13.00;65.90;;;12.63;62.82;97952.81;5023903;28;20521;-76
2023/06/15 01:22:59;;;;;;;5.30;4.80;;;12.80;67.00;;;12.42;63.21;97952.25;5008722;28;20488;-78
2023/06/15 01:25:43;;;;;;;4.93;4.50;;;12.70;68.00;;;12.53;63.12;97944.41;5010600;28;20469;-76
2023/06/15 01:28:15;;;;;;;5.73;5.23;;;12.70;68.70;;;12.30;63.85;97952.22;5031510;28;20457;-76
2023/06/15 01:30:45;;;;;;;5.50;4.70;;;12.60;69.10;;;12.23;64.30;97947.94;5012865;28;20501;-77
2023/06/15 01:33:13;;;;;;;6.40;5.70;;;12.50;69.50;;;12.28;63.97;97961.63;5030283;28;20535;-77
2023/06/15 01:35:40;;;;;;;5.70;5.10;;;12.50;70.10;;;12.20;64.11;97949.22;5026234;28;20495;-78
2023/06/15 01:38:08;;;;;;;5.80;5.20;;;12.40;70.50;;;12.36;63.68;97950.47;5028065;28;20477;-78
2023/06/15 01:40:40;;;;;;;8.47;5.20;;;12.50;70.60;;;12.26;63.88;97937.44;5033721;28;21255;-77
2023/06/15 01:43:12;;;;;;;4.57;4.17;;;12.50;70.80;;;12.31;63.83;97951.16;5017709;28;20478;-80
2023/06/15 01:45:40;;;;;;;6.20;5.17;;;12.50;71.00;;;12.10;63.76;97906.41;5036620;28;20461;-78
2023/06/15 01:48:08;;;;;;;5.67;5.17;;;12.60;71.00;;;12.41;63.30;97947.91;5015891;28;20458;-78
2023/06/15 01:50:37;;;;;;;5.10;4.60;;;12.60;70.50;;;12.30;64.21;97957.63;5031953;28;20481;-78
2023/06/15 01:53:05;;;;;;;5.30;4.80;;;12.60;70.90;;;12.26;64.60;97947.47;5007575;28;20521;-79
2023/06/15 01:55:32;;;;;;;5.60;5.10;;;12.50;71.70;;;12.14;64.73;97945.53;5017756;28;20462;-79
2023/06/15 01:58:00;;;;;;;6.30;5.70;;;12.40;71.90;;;12.02;65.25;97947.34;5031584;28;20516;-79
2023/06/15 02:00:29;;;;;;;5.20;4.80;;;12.30;72.50;;;11.94;65.60;97939.50;5031524;28;20455;-80
2023/06/15 02:02:56;;;;;;;6.00;5.50;;;12.30;72.90;;;11.97;65.16;97955.28;5013657;28;21015;-78
2023/06/15 02:05:24;;;;;;;6.23;5.00;;;12.20;73.00;;;12.10;65.12;97955.16;5014740;28;22058;-76
2023/06/15 02:07:51;;;;;;;5.20;4.70;;;12.30;72.90;;;12.14;64.90;97953.66;5029599;28;20465;-79
2023/06/15 02:10:18;;;;;;;6.33;5.70;;;12.40;72.60;;;12.11;64.90;97950.56;5010488;28;20467;-76
2023/06/15 02:12:45;;;;;;;5.80;5.30;;;12.40;73.00;;;11.99;65.67;97953.19;5012557;28;20548;-79
2023/06/15 02:15:15;;;;;;;5.13;4.63;;;12.30;73.50;;;11.63;65.72;97901.53;5029208;28;20473;-78
2023/06/15 02:17:44;;;;;;;5.57;5.03;;;12.30;73.60;;;11.97;65.54;97955.28;5016362;28;20452;-78
2023/06/15 02:20:13;;;;;;;6.10;5.20;;;12.30;73.50;;;11.92;65.94;97957.84;5026302;28;21077;-79
2023/06/15 02:22:40;;;;;;;6.10;5.40;;;12.20;73.80;;;12.07;65.49;97954.78;5022768;28;20465;-79
2023/06/15 02:25:09;;;;;;;6.30;5.07;;;12.30;73.60;;;11.98;65.48;97957.78;5029372;28;20546;-78
2023/06/15 02:27:37;;;;;;;5.63;5.10;;;12.20;73.80;;;11.87;65.89;97955.81;5030638;28;20483;-79
2023/06/15 02:30:06;;;;;;;6.07;5.53;;;12.20;73.70;;;11.83;65.72;97941.06;5015162;28;20458;-81
2023/06/15 02:32:35;;;;;;;6.83;5.83;;;12.20;74.20;;;11.90;65.90;97956.22;5008037;28;20450;-76
2023/06/15 02:35:06;;;;;;;6.60;6.00;;;12.10;74.60;;;11.77;66.26;97967.16;5029764;28;20467;-80
2023/06/15 02:37:33;;;;;;;6.47;5.97;;;12.00;74.80;;;11.82;66.19;97948.38;5003975;28;20451;-78
2023/06/15 02:40:03;;;;;;;5.97;5.37;;;12.00;74.70;;;11.80;65.84;97945.06;5010858;28;20461;-82
2023/06/15 02:42:31;;;;;;;6.03;5.40;;;12.10;74.60;;;11.87;65.80;97948.50;5016619;28;20466;-78
2023/06/15 02:44:58;;;;;;;10.80;6.20;;;12.10;74.70;;;11.87;65.75;97943.09;5010244;28;20461;-78
2023/06/15 02:47:26;;;;;;;6.10;5.53;;;12.20;74.60;;;11.92;65.83;97952.44;5032416;28;20450;-78
2023/06/15 02:49:53;;;;;;;5.73;5.23;;;12.20;74.10;;;11.80;65.98;97958.59;5029427;28;20478;-77
2023/06/15 02:52:22;;;;;;;6.93;5.80;;;12.20;74.30;;;11.74;66.67;97957.63;5024701;28;21306;-79
2023/06/15 02:54:50;;;;;;;6.40;5.80;;;12.10;74.70;;;11.69;67.01;97964.75;5031345;28;20447;-79
2023/06/15 02:57:17;;;;;;;6.57;5.90;;;11.90;75.20;;;11.66;66.53;97966.00;5031816;28;20476;-79
2023/06/15 02:59:44;;;;;;;6.23;5.73;;;11.90;75.30;;;11.26;67.02;97918.53;5027383;28;20443;-79
2023/06/15 03:02:12;;;;;;;7.47;6.17;;;11.80;75.70;;;11.74;67.22;97973.84;5025121;28;20464;-79
2023/06/15 03:04:44;;;;;;;6.53;5.93;;;11.90;76.40;;;11.59;67.73;97976.09;5028584;28;20458;-75
2023/06/15 03:07:13;;;;;;;5.83;5.33;;;11.80;76.30;;;11.52;67.39;97975.31;5014965;28;20547;-79
2023/06/15 03:09:41;;;;;;;6.27;5.70;;;11.80;76.70;;;11.51;67.50;97968.25;5006519;28;20453;-76
2023/06/15 03:12:09;;;;;;;6.17;5.50;;;11.70;77.00;;;11.51;67.35;97973.66;5021089;28;20672;-77
2023/06/15 03:14:37;;;;;;;7.07;6.40;;;11.70;76.90;;;11.49;67.64;97976.59;5027227;28;20459;-78
2023/06/15 03:17:08;;;;;;;6.53;5.63;;;11.60;77.20;;;11.66;66.78;97966.00;5025110;28;20491;-78
2023/06/15 03:19:35;;;;;;;7.03;6.33;;;11.90;76.40;;;11.73;67.08;97976.78;5012401;28;20804;-79
2023/06/15 03:22:04;;;;;;;6.70;6.00;;;12.00;76.30;;;11.80;66.42;97982.97;5026066;28;20446;-76
2023/06/15 03:24:32;;;;;;;7.07;5.93;;;12.00;75.90;;;11.72;66.43;97980.53;5025081;28;20451;-76
2023/06/15 03:27:06;;;;;;;6.67;6.10;;;12.10;75.90;;;11.75;65.93;97966.53;5009522;28;20467;-77
2023/06/15 03:29:36;;;;;;;6.77;5.70;;;12.10;75.70;;;11.90;66.31;97987.84;5027818;28;20461;-76
2023/06/15 03:32:05;;;;;;;6.97;6.20;;;12.20;75.80;;;11.99;65.91;97982.97;5026667;28;20496;-76
2023/06/15 03:34:33;;;;;;;6.07;5.47;;;12.20;75.30;;;11.97;65.95;97988.59;5025486;28;20472;-77
2023/06/15 03:37:00;;;;;;;7.20;6.20;;;12.30;75.50;;;11.97;66.43;97985.88;5023405;28;21095;-79
2023/06/15 03:39:27;;;;;;;6.97;6.37;;;12.30;75.40;;;12.02;66.41;97998.78;5022841;28;20928;-76
2023/06/15 03:41:54;;;;;;;6.83;5.93;;;12.30;75.80;;;11.99;66.38;97996.50;5006541;28;20452;-81
2023/06/15 03:44:23;;;;;;;6.60;6.00;;;12.30;76.00;;;11.95;66.43;98001.53;5028077;28;20902;-77
2023/06/15 03:46:50;;;;;;;6.83;6.17;;;12.30;76.00;;;11.85;66.90;97993.13;5006909;28;20460;-75
2023/06/15 03:49:18;;;;;;;6.77;6.17;;;12.20;76.00;;;12.10;65.70;97992.25;5024655;28;20451;-76
2023/06/15 03:51:45;;;;;;;7.73;6.93;;;12.40;75.60;;;11.90;66.31;97999.53;5029101;28;20487;-78
2023/06/15 03:54:13;;;;;;;7.30;5.93;;;12.30;75.60;;;11.86;66.88;98003.72;5024923;28;20561;-78
2023/06/15 03:56:40;;;;;;;7.40;6.70;;;12.20;76.30;;;11.88;67.28;98007.00;5031571;28;20482;-79
2023/06/15 03:59:07;;;;;;;6.97;6.27;;;12.20;76.10;;;12.00;66.48;98011.69;5028900;28;20467;-77
2023/06/15 04:01:36;;;;;;;6.80;6.13;;;12.30;75.90;;;12.05;65.78;98011.88;5030059;28;20454;-76
2023/06/15 04:04:04;;;;;;;9.60;6.40;;;12.40;75.60;;;12.29;65.37;97995.78;5031375;28;20466;-75
2023/06/15 04:06:32;;;;;;;7.00;6.40;;;12.60;75.70;;;13.06;62.61;97955.50;5030149;28;20465;-76
2023/06/15 04:08:59;;;;;;;6.97;6.13;;;13.40;74.90;;;14.25;59.35;98012.53;5030126;28;20487;-79
2023/06/15 04:11:27;;;;;;;7.37;6.67;;;14.60;71.10;;;15.44;55.85;98012.84;5034157;28;20479;-76
2023/06/15 04:13:54;;;;;;;5.70;5.20;;;15.90;68.10;;;16.37;53.67;98005.22;5029590;28;20522;-78
2023/06/15 04:16:23;;;;;;;7.40;5.77;;;16.80;64.70;;;16.87;50.83;98010.69;5028789;28;20460;-76
2023/06/15 04:18:52;;;;;;;6.57;5.83;;;17.70;60.10;;;17.74;49.50;98020.75;5027288;28;20461;-77
2023/06/15 04:21:19;;;;;;;6.07;5.57;;;18.50;58.70;;;18.31;47.26;98006.63;5009536;28;20872;-75
2023/06/15 04:23:46;;;;;;;6.00;5.50;;;18.80;56.70;;;18.30;47.35;98018.66;5011540;28;20461;-76
2023/06/15 04:26:14;;;;;;;5.60;5.10;;;19.20;55.60;;;18.63;46.62;98025.63;5018459;28;20461;-76
2023/06/15 04:28:45;;;;;;;8.00;5.53;;;19.60;54.40;;;18.94;45.37;98025.72;5011528;28;20481;-76
2023/06/15 04:31:14;;;;;;;6.00;5.50;;;20.00;53.20;;;19.05;45.46;98017.59;5023752;28;20478;-80
2023/06/15 04:33:42;;;;;;;6.17;5.67;;;20.10;52.90;;;19.34;44.93;98022.53;5007671;28;20451;-78
2023/06/15 04:36:13;;;;;;;6.30;5.70;;;20.20;52.30;;;19.94;43.47;98019.22;5030294;28;20442;-78
2023/06/15 04:38:46;;;;;;;5.93;5.33;;;20.70;51.70;;;19.18;44.99;98019.75;5029947;28;20469;-76
2023/06/15 04:41:14;;;;;;;6.17;5.57;;;20.40;51.70;;;19.95;43.36;98026.38;5015461;28;20490;-74
2023/06/15 04:43:42;;;;;;;5.80;5.30;;;20.50;51.50;;;19.24;44.61;98028.81;5031970;28;20442;-74
2023/06/15 04:46:11;;;;;;;5.73;5.23;;;20.50;51.20;;;18.34;46.54;98028.81;5008745;28;20500;-73
2023/06/15 04:48:43;;;;;;;6.20;5.43;;;19.70;51.20;;;18.80;46.20;98025.44;5033548;28;20452;-73
2023/06/15 04:51:12;;;;;;;5.93;5.33;;;20.00;51.50;;;18.48;46.80;98039.25;5028446;28;20478;-73
2023/06/15 04:53:39;;;;;;;7.67;5.97;;;19.70;51.40;;;18.60;46.05;98020.72;5028825;28;20524;-73
2023/06/15 04:56:06;;;;;;;6.30;5.43;;;19.50;51.70;;;18.64;46.08;98043.69;5027047;28;20931;-74
2023/06/15 04:58:33;;;;;;;5.50;5.00;;;19.40;51.90;;;19.67;44.21;98034.06;5027115;28;20484;-74
2023/06/15 05:01:01;;;;;;;6.40;5.50;;;20.20;51.50;;;20.48;42.77;98036.09;5029133;28;20456;-73
2023/06/15 05:03:28;;;;;;;5.07;4.60;;;21.00;50.80;;;21.40;40.32;98031.22;5016907;28;20454;-74
2023/06/15 05:05:56;;;;;;;6.00;5.40;;;21.80;49.80;;;20.81;41.00;98031.03;5037488;28;21029;-74
2023/06/15 05:08:25;;;;;;;5.87;5.37;;;22.00;48.90;;;20.68;40.81;98032.44;5009368;28;20459;-75
2023/06/15 05:10:52;;;;;;;5.23;4.73;;;22.20;48.80;;;21.69;40.14;98027.72;5023708;28;21133;-75
2023/06/15 05:13:19;;;;;;;6.30;5.23;;;22.20;48.90;;;21.95;39.05;98030.22;5030904;28;20468;-75
2023/06/15 05:15:47;;;;;;;5.80;5.30;;;22.50;48.40;;;22.01;38.81;98029.06;5014185;28;20488;-74
2023/06/15 05:18:14;;;;;;;5.73;5.23;;;23.00;47.90;;;22.22;38.15;98034.38;5029185;28;20458;-75
2023/06/15 05:20:41;;;;;;;5.70;5.20;;;23.20;47.40;;;21.82;38.70;98020.72;5012406;28;20451;-74
2023/06/15 05:23:08;;;;;;;7.00;5.70;;;22.90;47.40;;;20.93;40.10;98028.78;5000687;28;20818;-73
2023/06/15 05:25:37;;;;;;;5.50;5.10;;;22.10;47.30;;;20.39;41.33;98027.63;5030676;28;20482;-75
2023/06/15 05:28:05;;;;;;;5.20;4.67;;;21.20;47.90;;;21.28;40.01;98030.75;5033087;28;20948;-74
2023/06/15 05:30:32;;;;;;;5.53;5.03;;;21.60;48.10;;;21.74;38.96;98019.41;5026602;28;20472;-73
2023/06/15 05:32:59;;;;;;;6.47;5.87;;;22.10;48.00;;;21.92;38.77;98030.81;5028745;28;20477;-73
2023/06/15 05:35:26;;;;;;;6.67;5.40;;;22.30;47.80;;;22.49;37.50;98044.81;5029773;28;21047;-76
2023/06/15 05:37:56;;;;;;;5.07;4.67;;;23.20;47.30;;;22.56;37.13;98030.69;5032601;28;20505;-79
2023/06/15 05:40:23;;;;;;;5.60;4.63;;;23.40;46.50;;;22.84;36.96;98033.66;5022567;28;20963;-79
2023/06/15 05:42:52;;;;;;;5.70;5.20;;;23.70;46.40;;;22.56;37.01;98043.63;5009912;28;20458;-78
2023/06/15 05:45:20;;;;;;;5.77;5.27;;;23.90;45.90;;;23.26;36.63;98033.91;5026491;28;20471;-78
2023/06/15 05:47:47;;;;;;;5.67;5.17;;;24.00;46.30;;;23.01;36.61;98004.78;5011009;28;20471;-79
2023/06/15 05:50:15;;;;;;;5.67;5.20;;;24.10;46.30;;;23.56;36.99;98031.78;5006657;28;20592;-80
2023/06/15 05:52:42;;;;;;;7.30;5.87;;;24.40;46.70;;;23.43;37.21;98027.88;5010451;28;20570;-76
2023/06/15 05:55:10;;;;;;;6.93;5.97;;;24.30;46.90;;;23.13;37.67;98032.69;5002205;28;20530;-80
2023/06/15 05:57:37;;;;;;;6.20;5.60;;;24.00;47.00;;;21.37;39.45;98048.28;5026421;28;20788;-79
2023/06/15 06:00:09;;;;;;;5.80;5.30;;;23.30;46.10;;;21.54;39.49;98052.56;5020589;28;20466;-73
2023/06/15 06:02:36;;;;;;;5.40;4.90;;;22.70;46.50;;;21.01;40.59;98045.78;5002473;28;20458;-79
2023/06/15 06:05:04;;;;;;;5.87;5.37;;;22.10;46.70;;;21.45;40.54;98055.09;5020775;28;20467;-80
2023/06/15 06:07:32;;;;;;;6.20;5.60;;;22.30;47.40;;;21.64;39.87;98060.72;5025192;28;20554;-79
2023/06/15 06:10:00;;;;;;;6.40;5.80;;;22.60;47.30;;;21.27;40.97;98056.59;5024155;28;20539;-79
2023/06/15 06:12:28;;;;;;;5.63;5.13;;;22.60;47.30;;;20.55;41.96;98065.97;5005143;28;20486;-80
2023/06/15 06:14:55;;;;;;;5.80;5.30;;;22.10;47.00;;;21.43;41.01;98058.13;5005786;28;20455;-79
2023/06/15 06:17:25;;;;;;;6.70;6.00;;;22.40;47.90;;;21.01;41.80;98056.75;5004216;28;20454;-79
2023/06/15 06:19:52;;;;;;;5.40;4.90;;;22.30;47.70;;;21.44;40.76;98073.50;5023035;28;20454;-78
2023/06/15 06:22:20;;;;;;;6.60;5.63;;;22.30;47.60;;;21.83;39.86;98065.53;5026126;28;20453;-77
2023/06/15 06:24:47;;;;;;;6.27;5.77;;;22.80;47.50;;;22.14;39.69;98049.59;5005573;28;20526;-79
2023/06/15 06:27:15;;;;;;;6.67;6.00;;;23.00;47.60;;;21.77;40.17;98060.09;5005886;28;20453;-78
2023/06/15 06:29:42;;;;;;;6.73;5.90;;;22.90;47.30;;;21.64;40.59;98063.47;5025089;28;20466;-80
2023/06/15 06:32:12;;;;;;;5.73;5.23;;;22.70;47.40;;;20.96;42.49;98074.09;5006500;28;20512;-78
2023/06/15 06:34:40;;;;;;;6.83;5.63;;;22.00;48.00;;;19.74;45.00;98070.22;5023663;28;20463;-76
2023/06/15 06:37:08;;;;;;;6.27;5.73;;;20.80;48.70;;;19.02;46.67;98081.06;5021382;28;20454;-77
2023/06/15 06:39:35;;;;;;;6.00;5.50;;;19.80;49.50;;;18.47;47.99;98059.50;5007367;28;20897;-77
2023/06/15 06:42:02;;;;;;;6.07;5.47;;;19.20;50.70;;;18.23;48.57;98076.31;5003733;28;20457;-77
2023/06/15 06:44:30;;;;;;;6.63;6.07;;;18.70;51.20;;;18.15;49.48;98077.63;5006916;28;20458;-77
2023/06/15 06:46:59;;;;;;;6.33;5.73;;;18.60;52.30;;;18.20;49.83;98074.13;5014157;28;20450;-77
2023/06/15 06:49:26;;;;;;;5.93;5.33;;;18.50;52.70;;;18.23;50.11;98074.41;5021609;28;20557;-78
2023/06/15 06:51:55;;;;;;;8.60;5.60;;;18.50;53.10;;;17.91;50.36;98025.25;5016090;28;20576;-76
2023/06/15 06:54:22;;;;;;;6.37;5.77;;;18.60;53.60;;;18.25;50.52;98076.88;5023656;28;20469;-78
2023/06/15 06:56:52;;;;;;;5.83;5.23;;;18.60;53.90;;;18.21;50.29;98078.50;5021919;28;20457;-79
2023/06/15 06:59:19;;;;;;;5.60;5.10;;;18.60;54.10;;;17.99;50.92;98077.50;5022044;28;20469;-77
2023/06/15 07:01:46;;;;;;;5.60;5.10;;;18.30;54.40;;;18.16;50.87;98081.19;5020819;28;20519;-77
2023/06/15 07:04:14;;;;;;;5.97;5.43;;;18.40;54.70;;;18.27;50.91;98074.69;5022712;28;20458;-79
2023/06/15 07:06:43;;;;;;;5.63;5.13;;;18.50;55.00;;;17.94;50.73;98024.72;5025653;28;20454;-78
2023/06/15 07:09:12;;;;;;;6.00;5.40;;;18.60;55.40;;;18.32;49.41;98082.94;5008903;28;20534;-77
2023/06/15 07:11:39;;;;;;;5.73;5.23;;;18.70;53.80;;;18.32;50.02;98069.25;5025583;28;20489;-77
2023/06/15 07:14:07;;;;;;;6.03;5.43;;;18.60;54.30;;;18.66;49.53;98074.34;5009745;28;20450;-78
2023/06/15 07:16:34;;;;;;;6.10;5.50;;;18.80;54.60;;;19.00;49.02;98075.03;5018569;28;20942;-79
2023/06/15 07:19:03;;;;;;;6.00;5.50;;;19.10;54.50;;;18.75;49.37;98073.84;5024498;28;20462;-78
2023/06/15 07:21:31;;;;;;;6.30;5.50;;;19.20;54.40;;;18.98;48.31;98078.84;5022722;28;20517;-78
2023/06/15 07:23:58;;;;;;;8.43;5.30;;;19.20;53.90;;;19.28;47.53;98078.41;5012579;28;20458;-77
2023/06/15 07:26:27;;;;;;;5.40;4.90;;;19.40;53.50;;;19.24;47.10;98067.16;5022305;28;20946;-77
2023/06/15 07:28:54;;;;;;;6.47;5.77;;;19.50;53.00;;;19.39;46.12;98064.44;5039306;28;20465;-77
2023/06/15 07:31:25;;;;;;;6.10;5.50;;;19.60;52.60;;;19.39;45.91;98028.03;5023860;28;21037;-78
2023/06/15 07:33:54;;;;;;;6.30;5.80;;;19.80;52.40;;;19.58;45.61;98063.09;5018582;28;20478;-79
2023/06/15 07:36:22;;;;;;;5.83;5.33;;;19.80;51.90;;;19.94;45.05;98069.41;5031572;28;20452;-77
2023/06/15 07:38:49;;;;;;;5.80;5.30;;;20.00;51.90;;;19.91;44.78;98067.19;5018113;28;20439;-78
2023/06/15 07:41:16;;;;;;;6.37;5.30;;;20.10;51.70;;;19.85;43.87;98064.72;5034262;28;20458;-77
2023/06/15 07:43:45;;;;;;;6.50;5.30;;;20.20;50.40;;;19.79;43.88;98056.53;5024172;28;20464;-78
2023/06/15 07:46:12;;;;;;;6.27;5.67;;;20.10;50.50;;;19.46;45.26;98064.16;5010991;28;20474;-78
2023/06/15 07:48:40;;;;;;;6.17;5.57;;;19.90;50.90;;;19.75;44.66;98058.16;5036191;28;20515;-78
2023/06/15 07:51:07;;;;;;;7.30;5.80;;;20.00;51.10;;;19.92;44.68;98059.81;5006070;28;20541;-78
2023/06/15 07:53:34;;;;;;;5.57;5.07;;;20.20;51.20;;;20.02;43.06;98054.31;5021475;28;20499;-77
2023/06/15 07:56:02;;;;;;;6.03;5.43;;;20.20;50.20;;;20.02;42.52;98059.81;5011299;28;20458;-77
2023/06/15 07:58:29;;;;;;;5.67;5.10;;;20.30;49.50;;;20.17;42.16;98049.91;5021604;28;20982;-78
2023/06/15 08:00:58;;;;;;;5.33;4.83;;;20.40;49.40;;;20.73;41.58;98054.38;5006471;28;20469;-78
2023/06/15 08:03:25;;;;;;;6.20;4.90;;;20.70;49.50;;;20.66;41.18;98062.91;5009049;28;20451;-78
2023/06/15 08:05:52;;;;;;;5.10;4.67;;;20.90;48.80;;;20.67;40.28;98061.81;5024448;28;20520;-78
2023/06/15 08:08:19;;;;;;;5.13;4.40;;;20.90;48.20;;;20.71;40.24;98056.59;5033144;28;20462;-79
2023/06/15 08:10:47;;;;;;;4.90;4.50;;;20.80;48.10;;;21.03;39.70;98044.38;5031200;28;20911;-78
2023/06/15 08:13:14;;;;;;;5.20;4.80;;;21.10;47.90;;;21.17;38.41;98055.56;5014166;28;20519;-79
2023/06/15 08:15:42;;;;;;;4.80;4.40;;;21.30;47.20;;;21.18;39.12;98046.22;5033380;28;20457;-78
2023/06/15 08:18:11;;;;;;;4.50;4.10;;;21.40;47.50;;;20.95;39.07;98044.97;5022184;28;20463;-77
2023/06/15 08:20:38;;;;;;;4.33;3.80;;;21.40;47.30;;;21.00;39.09;98055.09;5022662;28;21271;-78
2023/06/15 08:23:05;;;;;;;5.43;4.50;;;21.30;47.10;;;21.08;37.82;98049.00;5017343;28;20441;-79
2023/06/15 08:25:34;;;;;;;4.87;4.37;;;21.40;46.60;;;21.05;37.76;98053.13;5021470;28;20454;-77
2023/06/15 08:28:01;;;;;;;4.07;3.77;;;21.40;46.10;;;20.84;38.47;98052.44;5023247;28;20481;-77
2023/06/15 08:30:29;;;;;;;4.67;4.27;;;21.20;46.10;;;20.80;38.27;98054.94;5013164;28;20476;-79
2023/06/15 08:32:56;;;;;;;4.93;4.43;;;21.10;46.10;;;20.59;38.74;98061.56;5026639;28;20479;-77
2023/06/15 08:35:25;;;;;;;4.53;4.10;;;20.90;46.10;;;20.54;39.41;98048.69;5015764;28;20466;-81
2023/06/15 08:37:52;;;;;;;5.13;4.63;;;20.70;46.60;;;20.85;38.47;98047.78;5006026;28;20952;-78
2023/06/15 08:40:20;;;;;;;4.90;4.50;;;21.00;46.30;;;20.91;38.14;98041.13;5025873;28;20465;-77
2023/06/15 08:42:48;;;;;;;5.20;4.70;;;21.10;46.10;;;20.93;38.86;98042.50;5010415;28;20509;-79
2023/06/15 08:45:17;;;;;;;5.40;4.60;;;21.20;46.50;;;21.11;37.95;98045.69;5024637;28;20468;-79
2023/06/15 08:47:44;;;;;;;5.65;5.15;;;21.30;46.10;;;21.41;38.26;98043.84;5008857;28;20504;-77
2023/06/15 08:50:12;;;;;;;5.90;5.23;;;21.50;46.50;;;21.52;38.20;98047.31;5024684;28;20546;-78
2023/06/15 08:52:42;;;;;;;5.37;4.87;;;21.70;46.50;;;21.84;36.39;98039.69;5025407;28;20550;-78
2023/06/15 08:55:15;;;;;;;5.30;4.80;;;21.90;45.80;;;21.98;35.71;98048.06;5007814;28;20472;-81
2023/06/15 08:57:43;;;;;;;6.40;5.10;;;22.10;45.10;;;22.31;35.11;98043.59;5018099;28;20448;-79
2023/06/15 09:00:12;;;;;;;5.17;4.67;;;22.40;44.70;;;22.05;35.19;98041.13;5005562;28;20901;-78
2023/06/15 09:02:46;;;;;;;5.17;4.60;;;22.30;44.40;;;22.00;35.88;98032.94;5036528;28;20481;-78
2023/06/15 09:05:13;;;;;;;5.17;4.67;;;22.30;44.80;;;21.94;35.47;98034.09;5036344;28;20463;-81
2023/06/15 09:07:42;;;;;;;7.67;5.13;;;22.10;44.40;;;21.74;34.83;98024.91;5016143;28;20510;-78
2023/06/15 09:10:17;;;;;;;5.07;4.57;;;22.10;43.90;;;21.46;33.93;97991.63;5030807;28;20467;-80
2023/06/15 09:12:46;;;;;;;5.70;5.20;;;22.00;43.00;;;21.77;34.61;98035.34;5014877;28;20545;-80
2023/06/15 09:15:20;;;;;;;4.70;4.30;;;22.00;43.70;;;21.60;35.51;98034.91;5011804;28;20458;-79
2023/06/15 09:17:50;;;;;;;5.60;5.20;;;21.90;44.00;;;21.99;35.84;98031.28;5029182;28;20504;-80
2023/06/15 09:20:19;;;;;;;5.30;4.80;;;22.10;44.70;;;22.12;34.79;98029.78;5014738;28;20483;-82
2023/06/15 09:22:48;;;;;;;5.13;4.73;;;22.30;44.10;;;22.02;35.66;98041.69;5034324;28;20462;-82
2023/06/15 09:25:19;;;;;;;5.13;4.63;;;22.20;44.30;;;21.67;34.92;98029.09;5034738;28;20461;-82
2023/06/15 09:27:58;;;;;;;5.10;4.60;;;22.10;43.70;;;21.84;34.93;98028.69;5034035;28;20470;-81
2023/06/15 09:30:32;;;;;;;5.77;4.83;;;22.00;43.80;;;21.90;35.38;98033.84;5029962;28;20474;-79
2023/06/15 09:33:00;;;;;;;5.83;4.90;;;22.20;44.10;;;22.26;35.22;98035.41;5030589;28;20470;-78
2023/06/15 09:35:27;;;;;;;5.43;5.00;;;22.40;44.50;;;22.26;33.35;98032.66;5038363;28;20458;-78
2023/06/15 09:37:56;;;;;;;4.63;4.23;;;22.50;43.20;;;22.24;33.79;98023.88;5045533;28;20463;-77
2023/06/15 09:40:28;;;;;;;7.30;5.53;;;22.50;43.30;;;22.36;32.89;98006.97;5021700;28;20465;-78
2023/06/15 09:42:56;;;;;;;4.97;4.57;;;22.70;42.70;;;22.60;33.58;98028.97;5014975;28;20466;-79
2023/06/15 09:45:24;;;;;;;8.17;5.53;;;22.80;43.10;;;22.38;34.96;98021.25;5006436;28;20465;-80
2023/06/15 09:47:57;;;;;;;6.00;5.43;;;22.80;43.70;;;22.12;34.32;98028.97;5007998;28;20467;-77
2023/06/15 09:50:29;;;;;;;5.00;3.97;;;22.50;43.20;;;21.79;33.68;97986.38;5015911;28;21336;-81
2023/06/15 09:53:03;;;;;;;5.23;4.73;;;22.30;42.90;;;22.29;33.77;98028.50;5025594;28;20578;-80
2023/06/15 09:55:31;;;;;;;5.13;4.63;;;22.40;42.90;;;21.96;33.01;98018.13;5023462;28;20516;-80
2023/06/15 09:57:58;;;;;;;4.80;4.30;;;22.30;42.30;;;21.63;33.96;98032.41;5031542;28;20455;-79
2023/06/15 10:00:26;;;;;;;5.50;4.20;;;22.10;42.30;;;21.86;34.30;98026.47;5016944;28;21122;-79
2023/06/15 10:02:55;;;;;;;4.37;3.97;;;22.00;42.70;;;22.36;33.36;98032.53;5008567;28;20467;-79
2023/06/15 10:05:32;;;;;;;6.57;4.83;;;22.40;42.80;;;22.67;32.72;98027.78;5025325;28;20557;-77
2023/06/15 10:08:05;;;;;;;4.73;4.33;;;22.70;42.50;;;23.05;32.29;98027.84;5027525;28;20467;-77
2023/06/15 10:10:34;;;;;;;4.73;4.30;;;23.00;42.70;;;22.92;32.04;98034.91;5022892;28;20491;-80
2023/06/15 10:13:02;;;;;;;5.13;4.70;;;23.10;42.00;;;23.16;32.48;98026.59;5026667;28;20478;-80
2023/06/15 10:15:33;;;;;;;5.90;5.27;;;23.30;42.70;;;23.27;32.39;98031.94;5025945;28;20546;-81
2023/06/15 10:18:05;;;;;;;4.73;4.33;;;23.30;42.50;;;23.39;31.53;98023.25;5024810;28;20455;-78
2023/06/15 10:20:34;;;;;;;4.67;4.23;;;23.40;42.00;;;23.45;31.96;98031.13;5008098;28;20979;-77
2023/06/15 10:23:08;;;;;;;4.80;4.30;;;23.50;42.50;;;23.15;32.31;98026.88;5020937;28;20843;-80
2023/06/15 10:25:36;;;;;;;5.10;4.60;;;23.50;42.40;;;22.83;33.21;98014.66;5015396;28;20461;-79